Time;durP1;ratioP1;P1;durP2;ratioP2;P2;SDS_P1;SDS_P2;PMS_P1;PMS_P2;Temp;Humidity;BMP_temperature;BMP_pressure;BME280_temperature;BME280_humidity;BME280_pressure;Samples;Min_cycle;Max_cycle;Signal;HPM_P1;HPM_P2
2022/11/13 00:00:25;;;;;;;39.75;13.85;;;;;;;;;;5061007;28;20198;-70
2022/11/13 00:02:53;;;;;;;15.07;12.82;;;;;;;;;;5061410;28;20643;-70
2022/11/13 00:05:19;;;;;;;21.45;13.68;;;;;;;;;;5061218;28;20284;-70
2022/11/13 00:07:45;;;;;;;14.80;13.05;;;;;;;;;;5061018;28;20389;-70
2022/11/13 00:10:12;;;;;;;32.28;12.32;;;;;;;;;;5061178;28;20197;-70
2022/11/13 00:12:38;;;;;;;47.03;13.85;;;;;;;;;;5060974;28;20205;-70
2022/11/13 00:15:05;;;;;;;37.92;12.27;;;;;;;;;;5061133;28;20477;-70
2022/11/13 00:17:31;;;;;;;30.65;12.95;;;;;;;;;;5063525;28;20193;-70
2022/11/13 00:19:59;;;;;;;26.88;13.32;;;;;;;;;;5064393;28;20205;-70
2022/11/13 00:22:25;;;;;;;15.88;12.98;;;;;;;;;;5064639;28;20322;-70
2022/11/13 00:24:51;;;;;;;16.98;13.70;;;;;;;;;;5064947;28;20203;-71
2022/11/13 00:27:17;;;;;;;25.17;13.80;;;;;;;;;;5064397;28;20220;-71
2022/11/13 00:29:44;;;;;;;16.70;12.50;;;;;;;;;;5064166;28;20384;-71
2022/11/13 00:32:10;;;;;;;15.15;11.93;;;;;;;;;;5064467;28;20265;-71
2022/11/13 00:34:37;;;;;;;28.88;12.50;;;;;;;;;;5064747;28;20201;-71
2022/11/13 00:37:04;;;;;;;39.65;14.02;;;;;;;;;;5064536;28;20292;-71
2022/11/13 00:39:30;;;;;;;18.58;13.52;;;;;;;;;;5064029;28;20196;-71
2022/11/13 00:41:57;;;;;;;14.63;12.43;;;;;;;;;;5064181;28;20223;-71
2022/11/13 00:44:23;;;;;;;32.22;13.35;;;;;;;;;;5064105;28;20216;-71
2022/11/13 00:46:49;;;;;;;29.10;13.68;;;;;;;;;;5064227;28;20528;-71
2022/11/13 00:49:16;;;;;;;16.10;12.40;;;;;;;;;;5064068;28;20213;-71
2022/11/13 00:51:42;;;;;;;15.93;12.65;;;;;;;;;;5064062;28;20504;-71
2022/11/13 00:54:10;;;;;;;16.48;11.60;;;;;;;;;;5064085;28;20204;-71
2022/11/13 00:56:36;;;;;;;16.52;12.50;;;;;;;;;;5064007;28;20387;-71
2022/11/13 00:59:03;;;;;;;15.10;12.40;;;;;;;;;;5063623;28;20204;-71
2022/11/13 01:01:29;;;;;;;27.13;11.48;;;;;;;;;;5064139;28;20272;-71
2022/11/13 01:03:55;;;;;;;25.42;11.75;;;;;;;;;;5063876;28;20204;-70
2022/11/13 01:06:23;;;;;;;18.80;12.02;;;;;;;;;;5064149;28;20399;-70
2022/11/13 01:08:50;;;;;;;13.32;11.70;;;;;;;;;;5063610;28;20397;-71
2022/11/13 01:11:19;;;;;;;13.15;11.57;;;;;;;;;;5063610;28;20268;-71
2022/11/13 01:13:46;;;;;;;31.27;12.05;;;;;;;;;;5063555;28;20197;-71
2022/11/13 01:16:13;;;;;;;14.52;12.30;;;;;;;;;;5063694;28;20384;-71
2022/11/13 01:18:41;;;;;;;15.73;11.20;;;;;;;;;;5063412;28;20532;-71
2022/11/13 01:21:09;;;;;;;13.48;11.13;;;;;;;;;;5063471;28;20196;-71
2022/11/13 01:23:36;;;;;;;12.70;11.35;;;;;;;;;;5063396;28;20211;-71
2022/11/13 01:26:06;;;;;;;23.50;12.80;;;;;;;;;;5063246;28;20221;-71
2022/11/13 01:28:34;;;;;;;12.18;10.88;;;;;;;;;;5062001;28;20225;-71
2022/11/13 01:31:00;;;;;;;12.65;11.45;;;;;;;;;;5063321;28;20197;-71
2022/11/13 01:33:27;;;;;;;51.45;14.05;;;;;;;;;;5063317;28;20204;-71
2022/11/13 01:35:59;;;;;;;15.70;12.23;;;;;;;;;;5063084;28;20275;-71
2022/11/13 01:38:25;;;;;;;171.18;16.13;;;;;;;;;;5062932;28;20404;-71
2022/11/13 01:40:51;;;;;;;14.27;12.25;;;;;;;;;;5063049;28;20291;-71
2022/11/13 01:43:25;;;;;;;17.55;12.10;;;;;;;;;;5063209;28;20197;-71
2022/11/13 01:46:05;;;;;;;30.85;13.88;;;;;;;;;;5062986;28;20212;-71
2022/11/13 01:48:33;;;;;;;13.43;12.02;;;;;;;;;;5062706;28;20514;-71
2022/11/13 01:50:59;;;;;;;15.18;11.63;;;;;;;;;;5062828;28;20509;-71
2022/11/13 01:53:26;;;;;;;24.77;12.15;;;;;;;;;;5063107;28;20212;-71
2022/11/13 01:55:53;;;;;;;23.13;12.13;;;;;;;;;;5062746;28;20197;-71
2022/11/13 01:58:19;;;;;;;23.42;12.73;;;;;;;;;;5062748;28;20201;-71
2022/11/13 02:00:46;;;;;;;83.32;13.65;;;;;;;;;;5062855;28;20497;-71
2022/11/13 02:03:13;;;;;;;72.72;13.27;;;;;;;;;;5062685;28;20203;-71
2022/11/13 02:05:40;;;;;;;17.42;11.85;;;;;;;;;;5062626;28;20235;-71
2022/11/13 02:08:06;;;;;;;12.35;11.10;;;;;;;;;;5062488;28;20229;-71
2022/11/13 02:10:32;;;;;;;41.47;11.85;;;;;;;;;;5062914;28;20403;-71
2022/11/13 02:12:58;;;;;;;12.90;11.23;;;;;;;;;;5062370;28;20203;-71
2022/11/13 02:15:25;;;;;;;17.33;11.32;;;;;;;;;;5061994;28;20213;-71
2022/11/13 02:17:54;;;;;;;19.10;11.55;;;;;;;;;;5062412;28;20524;-71
2022/11/13 02:20:25;;;;;;;21.02;11.43;;;;;;;;;;5062215;28;20411;-71
2022/11/13 02:22:55;;;;;;;11.95;10.30;;;;;;;;;;5062307;28;20205;-71
2022/11/13 02:25:24;;;;;;;12.20;10.90;;;;;;;;;;5062429;28;20204;-71
2022/11/13 02:27:51;;;;;;;40.15;11.20;;;;;;;;;;5061849;28;20225;-71
2022/11/13 02:30:19;;;;;;;11.70;10.40;;;;;;;;;;5062419;28;20197;-71
2022/11/13 02:32:46;;;;;;;11.02;9.95;;;;;;;;;;5062213;28;20236;-71
2022/11/13 02:35:13;;;;;;;23.88;10.30;;;;;;;;;;5062076;28;20197;-71
2022/11/13 02:37:39;;;;;;;9.88;9.02;;;;;;;;;;5062196;28;20204;-71
2022/11/13 02:40:06;;;;;;;10.30;9.40;;;;;;;;;;5061803;28;20216;-71
2022/11/13 02:42:34;;;;;;;24.75;10.48;;;;;;;;;;5062052;28;20212;-71
2022/11/13 02:45:01;;;;;;;12.75;10.65;;;;;;;;;;5062155;28;20569;-71
2022/11/13 02:47:27;;;;;;;22.02;10.50;;;;;;;;;;5061890;28;20294;-71
2022/11/13 02:49:53;;;;;;;13.68;11.07;;;;;;;;;;5061872;28;20505;-71
2022/11/13 02:52:19;;;;;;;20.67;9.90;;;;;;;;;;5061871;28;20204;-71
2022/11/13 02:54:46;;;;;;;19.38;11.43;;;;;;;;;;5061737;28;20538;-71
2022/11/13 02:57:12;;;;;;;46.75;11.80;;;;;;;;;;5062019;28;20197;-71
2022/11/13 02:59:40;;;;;;;11.95;10.85;;;;;;;;;;5061666;28;20203;-70
2022/11/13 03:02:06;;;;;;;14.40;9.73;;;;;;;;;;5061829;28;20544;-70
2022/11/13 03:04:32;;;;;;;11.57;10.38;;;;;;;;;;5061735;28;20205;-71
2022/11/13 03:06:59;;;;;;;16.35;10.88;;;;;;;;;;5061687;28;20221;-71
2022/11/13 03:09:25;;;;;;;34.28;11.00;;;;;;;;;;5061339;28;20208;-71
2022/11/13 03:11:51;;;;;;;26.25;9.65;;;;;;;;;;5061877;28;20227;-71
2022/11/13 03:14:18;;;;;;;10.45;9.48;;;;;;;;;;5061985;28;20197;-71
2022/11/13 03:16:45;;;;;;;11.00;9.90;;;;;;;;;;5061616;28;20199;-71
2022/11/13 03:19:11;;;;;;;9.95;9.15;;;;;;;;;;5061491;28;20504;-71
2022/11/13 03:21:38;;;;;;;47.03;10.57;;;;;;;;;;5061532;28;20364;-71
2022/11/13 03:24:04;;;;;;;10.70;9.70;;;;;;;;;;5061459;28;20204;-71
2022/11/13 03:26:30;;;;;;;10.35;9.35;;;;;;;;;;5061569;28;20404;-71
2022/11/13 03:28:57;;;;;;;9.52;8.70;;;;;;;;;;5061166;28;20217;-71
2022/11/13 03:31:23;;;;;;;16.70;8.88;;;;;;;;;;5061591;28;20203;-71
2022/11/13 03:33:53;;;;;;;9.27;8.40;;;;;;;;;;5061500;28;20535;-71
2022/11/13 03:36:19;;;;;;;9.63;8.57;;;;;;;;;;5061479;28;20197;-71
2022/11/13 03:38:46;;;;;;;15.48;9.23;;;;;;;;;;5061060;28;20205;-71
2022/11/13 03:41:13;;;;;;;71.35;10.50;;;;;;;;;;5061578;28;20197;-71
2022/11/13 03:43:40;;;;;;;33.40;10.18;;;;;;;;;;5061406;28;20197;-71
2022/11/13 03:46:06;;;;;;;10.15;9.20;;;;;;;;;;5061534;28;20519;-71
2022/11/13 03:48:33;;;;;;;11.07;9.25;;;;;;;;;;5060988;28;20217;-71
2022/11/13 03:51:01;;;;;;;11.02;9.02;;;;;;;;;;5061480;28;20287;-71
2022/11/13 03:53:27;;;;;;;10.75;9.00;;;;;;;;;;5065451;28;20201;-71
2022/11/13 03:55:53;;;;;;;13.45;9.52;;;;;;;;;;5065230;28;20208;-71
2022/11/13 03:58:20;;;;;;;34.97;9.70;;;;;;;;;;5064836;28;20193;-70
2022/11/13 04:00:46;;;;;;;22.25;9.93;;;;;;;;;;5065043;28;20200;-70
2022/11/13 04:03:13;;;;;;;50.72;10.00;;;;;;;;;;5064930;28;20197;-70
2022/11/13 04:05:39;;;;;;;21.17;9.43;;;;;;;;;;5064761;28;20228;-70
2022/11/13 04:08:07;;;;;;;36.55;10.23;;;;;;;;;;5064794;28;20225;-70
2022/11/13 04:10:33;;;;;;;10.63;9.52;;;;;;;;;;5065089;28;20530;-70
2022/11/13 04:12:59;;;;;;;9.90;8.80;;;;;;;;;;5064923;28;20216;-71
2022/11/13 04:15:25;;;;;;;27.63;9.43;;;;;;;;;;5064773;28;20201;-71
2022/11/13 04:17:52;;;;;;;18.05;9.07;;;;;;;;;;5064495;28;20256;-71
2022/11/13 04:20:18;;;;;;;19.38;9.65;;;;;;;;;;5064993;28;20404;-71
2022/11/13 04:22:44;;;;;;;13.43;8.90;;;;;;;;;;5064683;28;20220;-71
2022/11/13 04:25:12;;;;;;;19.13;8.93;;;;;;;;;;5064678;28;20203;-71
2022/11/13 04:27:38;;;;;;;8.93;8.13;;;;;;;;;;5064347;28;20414;-71
2022/11/13 04:30:05;;;;;;;8.55;7.68;;;;;;;;;;5064467;28;20213;-71
2022/11/13 04:32:32;;;;;;;11.48;8.35;;;;;;;;;;5064456;28;20203;-71
2022/11/13 04:34:58;;;;;;;52.80;8.88;;;;;;;;;;5064211;28;20197;-71
2022/11/13 04:37:24;;;;;;;85.88;9.73;;;;;;;;;;5064147;28;20227;-71
2022/11/13 04:39:50;;;;;;;18.85;8.00;;;;;;;;;;5064122;28;20512;-71
2022/11/13 04:45:02;;;;;;;8.98;7.20;;;;;;;;;;5064172;28;20195;-71
2022/11/13 04:47:29;;;;;;;8.90;7.78;;;;;;;;;;5064336;28;20193;-71
2022/11/13 04:49:55;;;;;;;26.23;7.97;;;;;;;;;;5064081;28;20500;-71
2022/11/13 04:52:22;;;;;;;8.52;7.72;;;;;;;;;;5064193;28;20198;-71
2022/11/13 04:54:48;;;;;;;7.68;7.13;;;;;;;;;;5064176;28;20204;-71
2022/11/13 04:57:14;;;;;;;49.05;7.57;;;;;;;;;;5063937;28;20223;-71
2022/11/13 04:59:42;;;;;;;6.55;6.15;;;;;;;;;;5063668;28;20390;-71
2022/11/13 05:02:08;;;;;;;7.57;6.88;;;;;;;;;;5064346;28;20211;-71
2022/11/13 05:04:34;;;;;;;7.95;7.35;;;;;;;;;;5063691;28;20197;-71
2022/11/13 05:07:01;;;;;;;16.20;7.68;;;;;;;;;;5063880;28;20492;-71
2022/11/13 05:09:27;;;;;;;10.45;6.82;;;;;;;;;;5063614;28;20205;-71
2022/11/13 05:11:53;;;;;;;16.35;7.25;;;;;;;;;;5063670;28;20209;-71
2022/11/13 05:14:19;;;;;;;7.30;6.70;;;;;;;;;;5063594;28;20669;-71
2022/11/13 05:16:48;;;;;;;13.77;7.45;;;;;;;;;;5063669;28;20197;-71
2022/11/13 05:19:15;;;;;;;7.20;6.63;;;;;;;;;;5063389;28;20204;-71
2022/11/13 05:21:41;;;;;;;7.10;6.60;;;;;;;;;;5063579;28;20211;-71
2022/11/13 05:24:09;;;;;;;7.68;7.10;;;;;;;;;;5063542;28;20204;-71
2022/11/13 05:26:36;;;;;;;9.27;6.97;;;;;;;;;;5063837;28;20197;-71
2022/11/13 05:29:03;;;;;;;20.33;6.85;;;;;;;;;;5062927;28;20213;-71
2022/11/13 05:31:29;;;;;;;31.38;7.53;;;;;;;;;;5063571;28;20197;-71
2022/11/13 05:33:56;;;;;;;10.30;7.53;;;;;;;;;;5063228;28;20287;-71
2022/11/13 05:36:23;;;;;;;7.90;7.30;;;;;;;;;;5063427;28;20203;-71
2022/11/13 05:38:50;;;;;;;7.32;6.68;;;;;;;;;;5062850;28;20217;-71
2022/11/13 05:41:18;;;;;;;8.65;7.82;;;;;;;;;;5063159;28;20197;-71
2022/11/13 05:43:45;;;;;;;20.00;6.85;;;;;;;;;;5063295;28;20193;-71
2022/11/13 05:46:12;;;;;;;9.30;8.40;;;;;;;;;;5063200;28;20203;-71
2022/11/13 05:48:39;;;;;;;8.50;7.80;;;;;;;;;;5062927;28;20205;-71
2022/11/13 05:51:08;;;;;;;8.90;7.70;;;;;;;;;;5062916;28;20395;-71
2022/11/13 05:53:35;;;;;;;8.50;7.72;;;;;;;;;;5062850;28;20201;-71
2022/11/13 05:56:01;;;;;;;11.60;8.60;;;;;;;;;;5062766;28;20406;-71
2022/11/13 05:58:28;;;;;;;36.38;9.02;;;;;;;;;;5062642;28;20227;-71
2022/11/13 06:01:05;;;;;;;43.20;9.50;;;;;;;;;;5062682;28;20230;-70
2022/11/13 06:03:31;;;;;;;31.98;9.20;;;;;;;;;;5062718;28;20518;-70
2022/11/13 06:05:57;;;;;;;42.40;9.05;;;;;;;;;;5062650;28;20203;-72
2022/11/13 06:08:25;;;;;;;8.40;7.70;;;;;;;;;;5062389;28;20199;-72
2022/11/13 06:10:51;;;;;;;12.13;8.70;;;;;;;;;;5062534;28;20201;-72
2022/11/13 06:13:18;;;;;;;17.90;8.68;;;;;;;;;;5062559;28;20465;-72
2022/11/13 06:15:44;;;;;;;30.58;9.20;;;;;;;;;;5062144;28;20219;-72
2022/11/13 06:18:10;;;;;;;9.13;8.25;;;;;;;;;;5062045;28;20213;-72
2022/11/13 06:20:37;;;;;;;8.93;8.13;;;;;;;;;;5062555;28;20197;-72
2022/11/13 06:23:03;;;;;;;8.38;7.45;;;;;;;;;;5062259;28;20197;-72
2022/11/13 06:25:30;;;;;;;9.02;8.13;;;;;;;;;;5062272;28;20193;-72
2022/11/13 06:27:57;;;;;;;9.05;7.97;;;;;;;;;;5062194;28;20562;-72
2022/11/13 06:30:23;;;;;;;10.65;8.88;;;;;;;;;;5062360;28;20197;-72
2022/11/13 06:32:51;;;;;;;24.25;9.38;;;;;;;;;;5062280;28;20197;-72
2022/11/13 06:35:18;;;;;;;11.88;8.68;;;;;;;;;;5062121;28;20205;-72
2022/11/13 06:37:44;;;;;;;22.33;9.10;;;;;;;;;;5061708;28;20223;-72
2022/11/13 06:40:11;;;;;;;15.57;8.57;;;;;;;;;;5062223;28;20497;-72
2022/11/13 06:42:38;;;;;;;37.50;9.68;;;;;;;;;;5062057;28;20505;-72
2022/11/13 06:45:05;;;;;;;12.18;9.43;;;;;;;;;;5061981;28;20204;-72
2022/11/13 06:47:32;;;;;;;9.70;8.80;;;;;;;;;;5061929;28;20189;-72
2022/11/13 06:49:58;;;;;;;10.85;9.82;;;;;;;;;;5061794;28;20202;-72
2022/11/13 06:52:24;;;;;;;9.63;8.35;;;;;;;;;;5062192;28;20189;-72
2022/11/13 06:54:50;;;;;;;10.30;8.93;;;;;;;;;;5061835;28;20204;-72
2022/11/13 06:57:17;;;;;;;9.68;8.77;;;;;;;;;;5061790;28;20211;-72
2022/11/13 06:59:44;;;;;;;11.55;8.32;;;;;;;;;;5061720;28;20197;-72
2022/11/13 07:02:11;;;;;;;18.13;8.30;;;;;;;;;;5061868;28;20247;-72
2022/11/13 07:04:37;;;;;;;15.38;8.52;;;;;;;;;;5061757;28;20207;-72
2022/11/13 07:07:04;;;;;;;12.95;8.27;;;;;;;;;;5061991;28;20209;-72
2022/11/13 07:09:30;;;;;;;15.98;9.95;;;;;;;;;;5061800;28;20377;-72
2022/11/13 07:11:57;;;;;;;9.85;8.63;;;;;;;;;;5061876;28;20197;-72
2022/11/13 07:14:23;;;;;;;9.93;8.98;;;;;;;;;;5061613;28;20197;-72
2022/11/13 07:16:50;;;;;;;49.00;10.07;;;;;;;;;;5061748;28;20388;-72
2022/11/13 07:19:17;;;;;;;9.45;8.48;;;;;;;;;;5061712;28;20240;-72
2022/11/13 07:21:43;;;;;;;36.72;9.20;;;;;;;;;;5061930;28;20203;-72
2022/11/13 07:24:10;;;;;;;12.65;8.75;;;;;;;;;;5061770;28;20426;-72
2022/11/13 07:26:36;;;;;;;47.17;9.93;;;;;;;;;;5062881;28;20197;-72
2022/11/13 07:29:02;;;;;;;12.60;9.27;;;;;;;;;;5065358;28;20528;-72
2022/11/13 07:31:28;;;;;;;30.40;9.45;;;;;;;;;;5065576;28;20204;-72
2022/11/13 07:33:56;;;;;;;13.38;8.63;;;;;;;;;;5065380;28;20203;-72
2022/11/13 07:36:22;;;;;;;33.67;10.45;;;;;;;;;;5065757;28;20197;-72
2022/11/13 07:38:49;;;;;;;13.10;9.55;;;;;;;;;;5065574;28;20550;-72
2022/11/13 07:41:15;;;;;;;10.82;8.98;;;;;;;;;;5065457;28;20201;-73
2022/11/13 07:43:41;;;;;;;12.35;8.85;;;;;;;;;;5065727;28;20203;-73
2022/11/13 07:46:07;;;;;;;19.63;9.70;;;;;;;;;;5065544;28;20481;-73
2022/11/13 07:48:34;;;;;;;22.65;9.15;;;;;;;;;;5064979;28;20201;-73
2022/11/13 07:51:02;;;;;;;16.15;9.70;;;;;;;;;;5065468;28;20197;-73
2022/11/13 07:53:28;;;;;;;12.13;9.35;;;;;;;;;;5065316;28;20223;-73
2022/11/13 07:55:55;;;;;;;10.90;9.70;;;;;;;;;;5065356;28;20203;-73
2022/11/13 07:58:21;;;;;;;14.30;9.13;;;;;;;;;;5065295;28;20520;-72
2022/11/13 08:00:47;;;;;;;9.30;8.40;;;;;;;;;;5065117;28;20197;-72
2022/11/13 08:03:15;;;;;;;9.25;8.30;;;;;;;;;;5064876;28;20205;-72
2022/11/13 08:05:42;;;;;;;9.52;8.63;;;;;;;;;;5064992;28;20196;-72
2022/11/13 08:08:12;;;;;;;8.90;8.10;;;;;;;;;;5064850;28;20390;-73
2022/11/13 08:10:40;;;;;;;14.85;9.35;;;;;;;;;;5064752;28;20197;-73
2022/11/13 08:13:07;;;;;;;10.00;9.00;;;;;;;;;;5064931;28;20193;-73
2022/11/13 08:15:34;;;;;;;9.93;9.02;;;;;;;;;;5064779;28;20412;-73
2022/11/13 08:18:01;;;;;;;20.02;9.88;;;;;;;;;;5064491;28;20227;-73
2022/11/13 08:20:28;;;;;;;10.20;9.30;;;;;;;;;;5063550;28;20204;-72
2022/11/13 08:22:56;;;;;;;10.52;9.50;;;;;;;;;;5063493;28;20204;-72
2022/11/13 08:25:24;;;;;;;11.88;9.85;;;;;;;;;;5063612;28;20211;-72
2022/11/13 08:27:51;;;;;;;15.98;9.70;;;;;;;;;;5063304;28;20224;-72
2022/11/13 08:30:18;;;;;;;24.17;10.25;;;;;;;;;;5063401;28;20205;-72
2022/11/13 08:32:44;;;;;;;17.25;10.27;;;;;;;;;;5063892;28;20497;-72
2022/11/13 08:35:11;;;;;;;19.40;10.85;;;;;;;;;;5063515;28;20201;-72
2022/11/13 08:37:37;;;;;;;12.13;10.45;;;;;;;;;;5062917;28;20227;-72
2022/11/13 08:40:04;;;;;;;13.00;10.68;;;;;;;;;;5063191;28;20228;-72
2022/11/13 08:42:31;;;;;;;16.60;11.95;;;;;;;;;;5063323;28;20204;-72
2022/11/13 08:44:57;;;;;;;13.30;10.15;;;;;;;;;;5063142;28;20207;-72
2022/11/13 08:47:24;;;;;;;27.02;12.07;;;;;;;;;;5063368;28;20197;-72
2022/11/13 08:49:51;;;;;;;24.83;11.98;;;;;;;;;;5063139;28;20198;-72
2022/11/13 08:52:17;;;;;;;12.57;11.25;;;;;;;;;;5063436;28;20492;-72
2022/11/13 08:54:43;;;;;;;14.88;11.82;;;;;;;;;;5063185;28;20220;-72
2022/11/13 08:57:09;;;;;;;13.88;11.43;;;;;;;;;;5063049;28;20201;-72
2022/11/13 08:59:37;;;;;;;13.10;11.40;;;;;;;;;;5062581;28;20229;-72
2022/11/13 09:02:03;;;;;;;16.52;12.25;;;;;;;;;;5062917;28;20204;-72
2022/11/13 09:04:30;;;;;;;15.30;12.75;;;;;;;;;;5062940;28;20268;-72
2022/11/13 09:06:56;;;;;;;20.42;13.38;;;;;;;;;;5062917;28;20197;-72
2022/11/13 09:09:23;;;;;;;22.02;12.50;;;;;;;;;;5062457;28;20207;-72
2022/11/13 09:11:49;;;;;;;12.80;11.50;;;;;;;;;;5062794;28;20497;-72
2022/11/13 09:14:15;;;;;;;13.48;12.10;;;;;;;;;;5062945;28;20204;-72
2022/11/13 09:16:43;;;;;;;15.00;12.48;;;;;;;;;;5062754;28;20197;-72
2022/11/13 09:19:09;;;;;;;13.63;12.10;;;;;;;;;;5026613;28;1037938;-72
2022/11/13 09:21:35;;;;;;;16.27;13.48;;;;;;;;;;5063840;28;20197;-72
2022/11/13 09:24:02;;;;;;;14.25;12.27;;;;;;;;;;5063712;28;20203;-72
2022/11/13 09:26:28;;;;;;;13.75;12.13;;;;;;;;;;5063626;28;20197;-72
2022/11/13 09:28:55;;;;;;;15.60;12.50;;;;;;;;;;5063235;28;20220;-72
2022/11/13 09:31:21;;;;;;;14.48;12.07;;;;;;;;;;5063516;28;20243;-72
2022/11/13 09:33:48;;;;;;;14.98;13.35;;;;;;;;;;5063718;28;20386;-72
2022/11/13 09:36:16;;;;;;;12.65;11.30;;;;;;;;;;5063506;28;20201;-72
2022/11/13 09:38:42;;;;;;;14.50;12.57;;;;;;;;;;5063084;28;20271;-72
2022/11/13 09:41:10;;;;;;;14.73;12.32;;;;;;;;;;5063346;28;20197;-72
2022/11/13 09:43:44;;;;;;;14.30;12.40;;;;;;;;;;5063630;28;20227;-72
2022/11/13 09:46:15;;;;;;;14.43;12.10;;;;;;;;;;5063463;28;20405;-72
2022/11/13 09:48:43;;;;;;;13.93;12.43;;;;;;;;;;5062625;28;20552;-72
2022/11/13 09:51:14;;;;;;;13.13;11.80;;;;;;;;;;5063122;28;20383;-72
2022/11/13 09:53:40;;;;;;;15.23;13.60;;;;;;;;;;5063051;28;20198;-72
2022/11/13 09:56:21;;;;;;;13.48;12.05;;;;;;;;;;5063227;28;20205;-72
2022/11/13 09:58:49;;;;;;;14.05;12.43;;;;;;;;;;5062880;28;20220;-72
2022/11/13 10:01:19;;;;;;;13.40;12.05;;;;;;;;;;5062991;28;20219;-72
2022/11/13 10:03:51;;;;;;;12.98;11.68;;;;;;;;;;5062779;28;20205;-72
2022/11/13 10:06:23;;;;;;;11.93;10.82;;;;;;;;;;5062745;28;20243;-72
2022/11/13 10:08:53;;;;;;;13.27;11.98;;;;;;;;;;5062599;28;20194;-72
2022/11/13 10:11:23;;;;;;;12.18;10.80;;;;;;;;;;5062963;28;20203;-72
2022/11/13 10:13:52;;;;;;;12.18;10.98;;;;;;;;;;5063192;28;20197;-72
2022/11/13 10:16:24;;;;;;;12.98;11.75;;;;;;;;;;5062616;28;20521;-72
2022/11/13 10:18:50;;;;;;;11.75;10.52;;;;;;;;;;5062400;28;20227;-72
2022/11/13 10:21:20;;;;;;;12.70;11.50;;;;;;;;;;5062628;28;20201;-72
2022/11/13 10:23:51;;;;;;;15.57;12.77;;;;;;;;;;5062417;28;20193;-72
2022/11/13 10:26:19;;;;;;;12.35;11.25;;;;;;;;;;5063031;28;20203;-72
2022/11/13 10:28:45;;;;;;;12.50;11.30;;;;;;;;;;5062192;28;20213;-72
2022/11/13 10:31:12;;;;;;;11.88;10.77;;;;;;;;;;5062518;28;20422;-72
2022/11/13 10:33:38;;;;;;;12.52;11.32;;;;;;;;;;5062600;28;20196;-72
2022/11/13 10:36:13;;;;;;;11.63;10.52;;;;;;;;;;5062466;28;20213;-72
2022/11/13 10:38:43;;;;;;;12.90;11.65;;;;;;;;;;5061972;28;20216;-72
2022/11/13 10:41:11;;;;;;;14.57;11.77;;;;;;;;;;5062589;28;20211;-72
2022/11/13 10:43:56;;;;;;;12.30;11.00;;;;;;;;;;5062163;28;20214;-72
2022/11/13 10:46:24;;;;;;;13.20;11.63;;;;;;;;;;5062423;28;20196;-72
2022/11/13 10:48:50;;;;;;;12.52;11.35;;;;;;;;;;5062377;28;20200;-72
2022/11/13 10:51:21;;;;;;;12.85;11.30;;;;;;;;;;5062259;28;20200;-72
2022/11/13 10:53:48;;;;;;;11.95;10.77;;;;;;;;;;5062013;28;20197;-72
2022/11/13 10:56:22;;;;;;;11.90;10.80;;;;;;;;;;5062259;28;20205;-72
2022/11/13 10:58:59;;;;;;;10.25;9.45;;;;;;;;;;5062168;28;20590;-72
2022/11/13 11:01:25;;;;;;;11.75;10.65;;;;;;;;;;5061960;28;20200;-72
2022/11/13 11:03:52;;;;;;;12.15;11.00;;;;;;;;;;5062051;28;20195;-72
2022/11/13 11:06:18;;;;;;;11.77;10.57;;;;;;;;;;5061869;28;20211;-72
2022/11/13 11:08:44;;;;;;;12.13;11.02;;;;;;;;;;5061703;28;20466;-72
2022/11/13 11:14:09;;;;;;;11.35;10.32;;;;;;;;;;5061803;28;20191;-71
2022/11/13 11:16:36;;;;;;;11.93;10.82;;;;;;;;;;5061699;28;20197;-71
2022/11/13 11:19:04;;;;;;;11.27;10.18;;;;;;;;;;5061313;28;20220;-71
2022/11/13 11:21:32;;;;;;;10.95;9.85;;;;;;;;;;5061980;28;20520;-72
2022/11/13 11:24:00;;;;;;;10.65;9.60;;;;;;;;;;5062196;28;20267;-72
2022/11/13 11:26:31;;;;;;;10.15;9.30;;;;;;;;;;5062024;28;20204;-72
2022/11/13 11:29:03;;;;;;;10.70;9.77;;;;;;;;;;5061597;28;20225;-72
2022/11/13 11:31:35;;;;;;;10.57;9.57;;;;;;;;;;5061550;28;20383;-72
2022/11/13 11:34:05;;;;;;;11.30;10.02;;;;;;;;;;5061894;28;20260;-72
2022/11/13 11:36:33;;;;;;;9.93;9.05;;;;;;;;;;5061987;28;20207;-72
2022/11/13 11:39:02;;;;;;;10.90;9.88;;;;;;;;;;5061577;28;20224;-72
2022/11/13 11:41:32;;;;;;;10.70;9.70;;;;;;;;;;5061636;28;20209;-72
2022/11/13 11:44:01;;;;;;;10.15;9.23;;;;;;;;;;5061478;28;20205;-72
2022/11/13 11:46:28;;;;;;;10.95;9.98;;;;;;;;;;5061537;28;20204;-72
2022/11/13 11:48:57;;;;;;;10.52;9.52;;;;;;;;;;5061427;28;20247;-72
2022/11/13 11:51:25;;;;;;;10.10;9.20;;;;;;;;;;5061465;28;20197;-72
2022/11/13 11:53:57;;;;;;;10.07;9.07;;;;;;;;;;5061515;28;20197;-72
2022/11/13 11:56:26;;;;;;;10.02;9.10;;;;;;;;;;5061380;28;20411;-72
2022/11/13 11:58:59;;;;;;;9.85;8.95;;;;;;;;;;5061169;28;20216;-72
2022/11/13 12:01:35;;;;;;;9.95;9.05;;;;;;;;;;5061706;28;20205;-72
2022/11/13 12:04:09;;;;;;;10.38;9.30;;;;;;;;;;5061994;28;20196;-72
2022/11/13 12:06:40;;;;;;;9.70;8.90;;;;;;;;;;5061663;28;20501;-71
2022/11/13 12:09:09;;;;;;;10.43;9.43;;;;;;;;;;5061433;28;20288;-72
2022/11/13 12:11:39;;;;;;;9.65;8.77;;;;;;;;;;5061547;28;20216;-72
2022/11/13 12:14:10;;;;;;;9.65;8.75;;;;;;;;;;5064908;28;20203;-72
2022/11/13 12:16:41;;;;;;;9.63;8.82;;;;;;;;;;5065274;28;20401;-72
2022/11/13 12:19:13;;;;;;;10.43;9.43;;;;;;;;;;5064742;28;20217;-72
2022/11/13 12:21:46;;;;;;;9.25;8.45;;;;;;;;;;5065156;28;20212;-72
2022/11/13 12:24:18;;;;;;;9.32;8.52;;;;;;;;;;5065293;28;20201;-71
2022/11/13 12:26:47;;;;;;;10.20;9.20;;;;;;;;;;5064795;28;20197;-72
2022/11/13 12:29:21;;;;;;;9.45;8.65;;;;;;;;;;5064740;28;20213;-72
2022/11/13 12:31:51;;;;;;;9.65;8.75;;;;;;;;;;5064871;28;20197;-72
2022/11/13 12:34:22;;;;;;;9.57;8.77;;;;;;;;;;5064929;28;20201;-72
2022/11/13 12:36:49;;;;;;;9.20;8.43;;;;;;;;;;5064736;28;20212;-71
2022/11/13 12:39:26;;;;;;;9.48;8.57;;;;;;;;;;5064444;28;20221;-71
2022/11/13 12:41:55;;;;;;;9.27;8.48;;;;;;;;;;5064566;28;20197;-71
2022/11/13 12:44:24;;;;;;;8.93;8.13;;;;;;;;;;5064494;28;20197;-71
2022/11/13 12:46:52;;;;;;;9.52;8.63;;;;;;;;;;5064661;28;20500;-71
2022/11/13 12:49:33;;;;;;;9.23;8.43;;;;;;;;;;5064377;28;20444;-71
2022/11/13 12:52:00;;;;;;;8.98;8.18;;;;;;;;;;5064722;28;20488;-71
2022/11/13 12:54:27;;;;;;;9.05;8.15;;;;;;;;;;5064361;28;20197;-71
2022/11/13 12:57:04;;;;;;;9.65;8.77;;;;;;;;;;5064048;28;20200;-71
2022/11/13 12:59:32;;;;;;;9.30;8.48;;;;;;;;;;5064071;28;20217;-72
2022/11/13 13:02:02;;;;;;;9.55;8.68;;;;;;;;;;5064462;28;20207;-72
2022/11/13 13:04:43;;;;;;;9.65;8.68;;;;;;;;;;5064031;28;20390;-72
2022/11/13 13:07:17;;;;;;;10.02;9.13;;;;;;;;;;5063731;28;20197;-72
2022/11/13 13:09:55;;;;;;;10.02;9.13;;;;;;;;;;5063796;28;20194;-72
2022/11/13 13:12:27;;;;;;;10.80;9.73;;;;;;;;;;5063810;28;20197;-72
2022/11/13 13:15:02;;;;;;;11.05;9.02;;;;;;;;;;5063562;28;20201;-72
2022/11/13 13:17:29;;;;;;;10.02;9.07;;;;;;;;;;5063562;28;20564;-72
2022/11/13 13:20:01;;;;;;;10.48;9.57;;;;;;;;;;5063156;28;20220;-72
2022/11/13 13:22:28;;;;;;;10.10;9.20;;;;;;;;;;5063753;28;20211;-72
2022/11/13 13:25:01;;;;;;;10.60;9.50;;;;;;;;;;5062542;28;20197;-72
2022/11/13 13:27:29;;;;;;;10.82;9.73;;;;;;;;;;5063262;28;20217;-72
2022/11/13 13:29:55;;;;;;;10.27;9.30;;;;;;;;;;5063248;28;20197;-72
2022/11/13 13:32:24;;;;;;;10.35;9.35;;;;;;;;;;5063227;28;20396;-72
2022/11/13 13:34:56;;;;;;;11.48;10.27;;;;;;;;;;5063404;28;20361;-72
2022/11/13 13:37:28;;;;;;;10.90;9.90;;;;;;;;;;5063198;28;20569;-72
2022/11/13 13:40:00;;;;;;;10.93;9.82;;;;;;;;;;5062947;28;20228;-72
2022/11/13 13:42:38;;;;;;;11.02;9.93;;;;;;;;;;5063406;28;20395;-72
2022/11/13 13:45:17;;;;;;;11.30;10.00;;;;;;;;;;5063509;28;20213;-72
2022/11/13 13:47:44;;;;;;;10.80;9.73;;;;;;;;;;5063067;28;20197;-72
2022/11/13 13:50:15;;;;;;;10.90;9.80;;;;;;;;;;5063532;28;20200;-72
2022/11/13 13:52:43;;;;;;;10.73;9.73;;;;;;;;;;5063435;28;20390;-72
2022/11/13 13:55:16;;;;;;;10.90;9.85;;;;;;;;;;5063060;28;20203;-72
2022/11/13 13:57:42;;;;;;;10.70;9.65;;;;;;;;;;5063198;28;20272;-71
2022/11/13 14:00:11;;;;;;;9.90;9.00;;;;;;;;;;5063059;28;20248;-71
2022/11/13 14:02:44;;;;;;;10.45;9.45;;;;;;;;;;5063140;28;20423;-71
2022/11/13 14:05:17;;;;;;;9.90;9.00;;;;;;;;;;5063105;28;20220;-73
2022/11/13 14:07:46;;;;;;;10.63;9.18;;;;;;;;;;5062546;28;20208;-71
2022/11/13 14:10:15;;;;;;;11.40;9.90;;;;;;;;;;5063050;28;20201;-73
2022/11/13 14:12:42;;;;;;;11.23;10.00;;;;;;;;;;5062886;28;20197;-73
2022/11/13 14:15:20;;;;;;;10.95;9.73;;;;;;;;;;5062885;28;20488;-71
2022/11/13 14:17:46;;;;;;;11.20;8.77;;;;;;;;;;5062473;28;20203;-71
2022/11/13 14:20:13;;;;;;;12.77;9.65;;;;;;;;;;5062935;28;20221;-71
2022/11/13 14:22:40;;;;;;;10.90;9.90;;;;;;;;;;5062440;28;20206;-73
2022/11/13 14:25:21;;;;;;;13.70;9.90;;;;;;;;;;5062773;28;20196;-73
2022/11/13 14:27:48;;;;;;;10.60;9.60;;;;;;;;;;5062292;28;20223;-72
2022/11/13 14:30:23;;;;;;;12.43;10.95;;;;;;;;;;5062704;28;20384;-72
2022/11/13 14:32:49;;;;;;;9.85;8.95;;;;;;;;;;5062406;28;20203;-72
2022/11/13 14:35:18;;;;;;;11.50;9.63;;;;;;;;;;5062310;28;20204;-72